createdAt,value
2019-01-09T00:00:10.016Z,32.03
2019-01-09T00:02:40.690Z,29.90
2019-01-09T00:05:11.386Z,30.70
2019-01-09T00:07:42.011Z,25.65
2019-01-09T00:10:12.710Z,29.82
2019-01-09T00:12:43.327Z,31.10
2019-01-09T00:15:16.909Z,30.97
2019-01-09T00:17:47.627Z,29.23
2019-01-09T00:20:19.721Z,36.40
2019-01-09T00:22:51.889Z,38.80
2019-01-09T00:25:22.602Z,30.33
2019-01-09T00:27:53.627Z,35.27
2019-01-09T00:30:26.241Z,34.73
2019-01-09T00:32:56.592Z,32.13
2019-01-09T00:35:27.348Z,31.17
2019-01-09T00:37:57.969Z,30.00
2019-01-09T00:40:28.675Z,33.33
2019-01-09T00:42:59.352Z,25.17
2019-01-09T00:45:30.106Z,28.27
2019-01-09T00:48:01.170Z,32.37
2019-01-09T00:50:31.908Z,28.23
2019-01-09T00:53:04.495Z,33.10
2019-01-09T00:55:35.239Z,33.77
2019-01-09T00:58:05.953Z,32.33
2019-01-09T01:00:40.104Z,34.65
2019-01-09T01:03:38.619Z,26.60
2019-01-09T01:06:47.234Z,28.83
2019-01-09T01:09:36.952Z,29.77
2019-01-09T01:13:00.150Z,30.10
2019-01-09T01:15:53.176Z,34.93
2019-01-09T01:18:48.941Z,29.90
2019-01-09T01:21:32.802Z,31.63
2019-01-09T01:24:24.430Z,28.20
2019-01-09T01:27:02.131Z,35.77
2019-01-09T01:30:19.286Z,29.00
2019-01-09T01:33:21.018Z,36.07
2019-01-09T01:36:07.733Z,32.15
2019-01-09T01:38:54.284Z,39.37
2019-01-09T01:41:37.907Z,27.70
2019-01-09T01:44:16.157Z,31.77
2019-01-09T01:47:26.192Z,38.00
2019-01-09T01:50:22.022Z,28.03
2019-01-09T01:53:11.668Z,31.97
2019-01-09T01:55:59.233Z,31.73
2019-01-09T01:58:49.312Z,34.27
2019-01-09T02:01:43.411Z,34.20
2019-01-09T02:04:49.731Z,28.27
2019-01-09T02:07:50.091Z,29.13
2019-01-09T02:10:59.779Z,25.35
2019-01-09T02:13:46.773Z,26.73
2019-01-09T02:16:36.662Z,32.70
2019-01-09T02:19:36.263Z,32.07
2019-01-09T02:22:32.175Z,32.63
2019-01-09T02:25:18.691Z,29.57
2019-01-09T02:27:59.650Z,31.20
2019-01-09T02:31:01.342Z,28.27
2019-01-09T02:33:31.837Z,32.10
2019-01-09T02:36:13.306Z,30.20
2019-01-09T02:38:37.657Z,32.67
2019-01-09T02:41:08.400Z,33.20
2019-01-09T02:43:38.932Z,34.30
2019-01-09T02:46:09.959Z,37.13
2019-01-09T02:48:40.549Z,30.10
2019-01-09T02:51:12.207Z,31.43
2019-01-09T02:53:42.843Z,33.48
2019-01-09T02:56:13.447Z,30.53
2019-01-09T02:58:44.421Z,27.80
2019-01-09T03:01:15.451Z,31.93
2019-01-09T03:03:46.139Z,36.53
2019-01-09T03:06:22.915Z,29.45
2019-01-09T03:08:52.564Z,32.80
2019-01-09T03:11:26.223Z,32.10
2019-01-09T03:13:56.783Z,31.10
2019-01-09T03:16:27.796Z,37.53
2019-01-09T03:19:00.228Z,34.17
2019-01-09T03:21:31.069Z,34.03
2019-01-09T03:24:02.692Z,32.83
2019-01-09T03:26:36.424Z,35.20
2019-01-09T03:29:07.468Z,33.90
2019-01-09T03:31:38.085Z,38.53
2019-01-09T03:34:09.834Z,32.60
2019-01-09T03:36:40.437Z,38.20
2019-01-09T03:39:11.387Z,33.57
2019-01-09T03:41:44.985Z,33.53
2019-01-09T03:44:17.249Z,29.57
2019-01-09T03:46:51.489Z,32.30
2019-01-09T03:49:21.969Z,35.77
2019-01-09T03:51:52.531Z,35.00
2019-01-09T03:54:23.150Z,32.93
2019-01-09T03:56:53.657Z,38.77
2019-01-09T03:59:24.335Z,35.70
2019-01-09T04:01:54.958Z,30.17
2019-01-09T04:04:25.846Z,40.87
2019-01-09T04:06:56.486Z,33.60
2019-01-09T04:09:27.057Z,40.40
2019-01-09T04:11:57.681Z,35.33
2019-01-09T04:14:30.713Z,42.37
2019-01-09T04:17:03.530Z,38.13
2019-01-09T04:19:33.278Z,33.90
2019-01-09T04:22:03.881Z,35.10
2019-01-09T04:24:35.637Z,32.33
2019-01-09T04:27:06.337Z,33.10
2019-01-09T04:29:41.792Z,35.30
2019-01-09T04:32:13.647Z,33.97
2019-01-09T04:34:44.254Z,41.97
2019-01-09T04:37:15.164Z,38.17
2019-01-09T04:39:46.632Z,39.90
2019-01-09T04:42:17.317Z,33.13
2019-01-09T04:44:47.931Z,37.07
2019-01-09T04:47:18.858Z,34.10
2019-01-09T04:49:51.244Z,32.00
2019-01-09T04:52:21.724Z,34.67
2019-01-09T04:54:52.685Z,29.70
2019-01-09T04:57:23.293Z,41.67
2019-01-09T04:59:56.941Z,38.60
2019-01-09T05:02:28.176Z,29.30
2019-01-09T05:04:58.821Z,39.33
2019-01-09T05:07:29.723Z,30.50
2019-01-09T05:10:00.707Z,33.83
2019-01-09T05:12:34.065Z,38.07
2019-01-09T05:15:04.886Z,37.13
2019-01-09T05:17:35.703Z,37.27
2019-01-09T05:20:09.458Z,36.13
2019-01-09T05:22:39.919Z,37.03
2019-01-09T05:25:10.560Z,34.50
2019-01-09T05:27:41.140Z,31.90
2019-01-09T05:30:11.808Z,33.90
2019-01-09T05:32:42.378Z,31.53
2019-01-09T05:35:13.495Z,32.70
2019-01-09T05:37:44.346Z,35.70
2019-01-09T05:40:15.568Z,35.80
2019-01-09T05:42:46.208Z,34.90
2019-01-09T05:45:17.475Z,33.07
2019-01-09T05:47:48.119Z,35.60
2019-01-09T05:50:18.676Z,35.30
2019-01-09T05:52:49.243Z,36.67
2019-01-09T05:55:20.280Z,33.53
2019-01-09T05:57:50.872Z,32.90
2019-01-09T06:00:21.629Z,34.73
2019-01-09T06:02:52.794Z,34.90
2019-01-09T06:05:23.481Z,34.53
2019-01-09T06:07:54.932Z,30.33
2019-01-09T06:10:25.494Z,34.40
2019-01-09T06:12:57.857Z,31.97
2019-01-09T06:15:32.386Z,27.23
2019-01-09T06:18:02.950Z,37.67
2019-01-09T06:20:35.322Z,34.17
2019-01-09T06:23:05.995Z,33.47
2019-01-09T06:25:36.663Z,34.83
2019-01-09T06:28:07.064Z,39.73
2019-01-09T06:30:37.983Z,36.73
2019-01-09T06:33:08.920Z,30.77
2019-01-09T06:35:41.292Z,34.37
2019-01-09T06:38:14.884Z,37.77
2019-01-09T06:40:45.648Z,33.13
2019-01-09T06:43:18.270Z,41.17
2019-01-09T06:45:49.546Z,39.37
2019-01-09T06:48:20.522Z,47.77
2019-01-09T06:50:51.121Z,37.90
2019-01-09T06:53:21.702Z,40.07
2019-01-09T06:55:52.347Z,43.43
2019-01-09T06:58:22.923Z,41.13
2019-01-09T07:00:53.427Z,44.57
2019-01-09T07:03:23.958Z,43.73
2019-01-09T07:05:55.251Z,44.33
2019-01-09T07:08:28.822Z,39.67
2019-01-09T07:10:59.457Z,41.70
2019-01-09T07:13:29.965Z,38.47
2019-01-09T07:16:01.100Z,38.57
2019-01-09T07:18:31.935Z,41.30
2019-01-09T07:21:06.390Z,38.83
2019-01-09T07:23:37.023Z,41.53
2019-01-09T07:26:07.623Z,40.90
2019-01-09T07:28:38.242Z,46.67
2019-01-09T07:31:09.399Z,44.37
2019-01-09T07:33:39.975Z,47.80
2019-01-09T07:36:10.624Z,45.27
2019-01-09T07:38:41.142Z,52.50
2019-01-09T07:41:11.989Z,48.23
2019-01-09T07:43:42.559Z,34.77
2019-01-09T07:46:13.202Z,47.30
2019-01-09T07:48:43.816Z,42.10
2019-01-09T07:51:14.362Z,42.60
2019-01-09T07:53:45.223Z,45.40
2019-01-09T07:56:19.105Z,56.07
2019-01-09T07:58:49.708Z,48.97
2019-01-09T08:01:20.359Z,43.80
2019-01-09T08:03:51.333Z,45.03
2019-01-09T08:06:21.811Z,42.70
2019-01-09T08:08:52.209Z,43.90
2019-01-09T08:11:22.830Z,40.83
2019-01-09T08:13:53.211Z,45.87
2019-01-09T08:16:23.705Z,45.53
2019-01-09T08:18:54.277Z,45.57
2019-01-09T08:21:24.939Z,42.93
2019-01-09T08:23:56.826Z,44.97
2019-01-09T08:26:27.449Z,46.13
2019-01-09T08:28:57.993Z,37.53
2019-01-09T08:31:28.584Z,43.27
2019-01-09T08:33:59.214Z,40.80
2019-01-09T08:36:29.685Z,46.03
2019-01-09T08:39:04.517Z,35.67
2019-01-09T08:41:35.286Z,38.93
2019-01-09T08:44:06.351Z,38.53
2019-01-09T08:46:36.858Z,38.27
2019-01-09T08:49:10.447Z,38.37
2019-01-09T08:51:40.892Z,38.33
2019-01-09T08:54:11.963Z,37.53
2019-01-09T08:56:43.517Z,42.27
2019-01-09T08:59:14.005Z,43.03
2019-01-09T09:01:44.438Z,41.73
2019-01-09T09:04:15.075Z,37.13
2019-01-09T09:06:45.633Z,39.80
2019-01-09T09:09:17.554Z,36.63
2019-01-09T09:11:48.135Z,37.90
2019-01-09T09:14:18.780Z,37.63
2019-01-09T09:16:49.790Z,31.67
2019-01-09T09:19:20.591Z,36.27
2019-01-09T09:21:51.011Z,37.77
2019-01-09T09:24:21.663Z,35.20
2019-01-09T09:26:52.251Z,36.83
2019-01-09T09:29:22.794Z,39.77
2019-01-09T09:31:53.456Z,36.87
2019-01-09T09:34:25.726Z,37.20
2019-01-09T09:36:56.418Z,35.47
2019-01-09T09:39:27.838Z,32.27
2019-01-09T09:41:58.315Z,32.30
2019-01-09T09:44:29.042Z,33.03
2019-01-09T09:46:59.467Z,30.77
2019-01-09T09:49:30.936Z,28.57
2019-01-09T09:52:01.868Z,33.80
2019-01-09T09:54:32.375Z,32.97
2019-01-09T09:57:03.265Z,34.97
2019-01-09T09:59:33.778Z,34.57
2019-01-09T10:02:04.441Z,33.87
2019-01-09T10:04:34.993Z,33.87
2019-01-09T10:07:05.652Z,32.53
2019-01-09T10:09:36.313Z,31.27
2019-01-09T10:12:06.861Z,32.10
2019-01-09T10:14:37.497Z,37.63
2019-01-09T10:17:08.210Z,31.37
2019-01-09T10:19:38.753Z,33.33
2019-01-09T10:22:09.335Z,32.87
2019-01-09T10:24:39.983Z,32.63
2019-01-09T10:27:10.386Z,29.97
2019-01-09T10:29:40.929Z,32.70
2019-01-09T10:32:11.477Z,36.90
2019-01-09T10:34:41.993Z,34.80
2019-01-09T10:37:12.659Z,30.17
2019-01-09T10:39:44.040Z,30.13
2019-01-09T10:42:16.606Z,31.60
2019-01-09T10:44:46.856Z,31.23
2019-01-09T10:47:17.717Z,34.60
2019-01-09T10:49:49.027Z,36.63
2019-01-09T10:52:19.659Z,38.33
2019-01-09T10:54:51.176Z,35.03
2019-01-09T10:57:21.810Z,36.33
2019-01-09T10:59:52.274Z,43.70
2019-01-09T11:02:22.910Z,35.47
2019-01-09T11:04:54.578Z,42.87
2019-01-09T11:07:25.240Z,44.17
2019-01-09T11:09:55.894Z,37.17
2019-01-09T11:12:26.448Z,36.97
2019-01-09T11:14:57.173Z,38.10
2019-01-09T11:17:27.687Z,39.43
2019-01-09T11:19:58.259Z,41.27
2019-01-09T11:22:28.907Z,35.67
2019-01-09T11:25:01.364Z,39.43
2019-01-09T11:27:31.719Z,39.90
2019-01-09T11:30:02.262Z,37.60
2019-01-09T11:32:32.938Z,38.97
2019-01-09T11:35:03.574Z,37.63
2019-01-09T11:37:34.176Z,36.40
2019-01-09T11:40:10.089Z,34.67
2019-01-09T11:42:40.688Z,33.60
2019-01-09T11:45:14.989Z,36.27
2019-01-09T11:47:45.627Z,39.27
2019-01-09T11:50:17.550Z,36.27
2019-01-09T11:52:48.537Z,36.67
2019-01-09T11:55:20.070Z,36.10
2019-01-09T11:57:51.079Z,42.03
2019-01-09T12:00:24.869Z,38.87
2019-01-09T12:02:55.550Z,43.17
2019-01-09T12:05:26.342Z,41.93
2019-01-09T12:08:01.021Z,41.37
2019-01-09T12:10:32.071Z,45.07
2019-01-09T12:13:05.857Z,46.80
2019-01-09T12:15:36.363Z,45.83
2019-01-09T12:18:07.241Z,41.40
2019-01-09T12:20:37.800Z,45.17
2019-01-09T12:23:08.378Z,40.93
2019-01-09T12:25:38.903Z,50.47
2019-01-09T12:28:09.529Z,46.83
2019-01-09T12:30:40.059Z,51.27
2019-01-09T12:33:10.615Z,49.03
2019-01-09T12:35:41.150Z,52.67
2019-01-09T12:38:11.643Z,47.20
2019-01-09T12:40:43.776Z,46.90
2019-01-09T12:43:15.984Z,49.23
2019-01-09T12:45:46.507Z,45.13
2019-01-09T12:48:17.114Z,46.33
2019-01-09T12:50:47.693Z,41.67
2019-01-09T12:53:18.285Z,38.00
2019-01-09T12:55:49.258Z,41.83
2019-01-09T12:58:19.821Z,39.07
2019-01-09T13:00:51.373Z,43.27
2019-01-09T13:03:21.885Z,39.43
2019-01-09T13:05:53.147Z,42.23
2019-01-09T13:08:23.940Z,41.07
2019-01-09T13:10:54.623Z,37.43
2019-01-09T13:13:25.227Z,37.37
2019-01-09T13:15:55.971Z,40.57
2019-01-09T13:18:29.780Z,39.60
2019-01-09T13:21:07.491Z,44.13
2019-01-09T13:23:38.071Z,41.67
2019-01-09T13:26:08.663Z,48.50
2019-01-09T13:28:39.378Z,43.83
2019-01-09T13:31:10.011Z,46.30
2019-01-09T13:33:40.637Z,42.43
2019-01-09T13:36:12.240Z,48.10
2019-01-09T13:38:43.843Z,44.87
2019-01-09T13:41:17.007Z,45.50
2019-01-09T13:43:47.455Z,42.80
2019-01-09T13:46:17.947Z,46.03
2019-01-09T13:48:48.627Z,46.50
2019-01-09T13:51:19.261Z,43.83
2019-01-09T13:53:49.876Z,45.13
2019-01-09T13:56:20.487Z,47.33
2019-01-09T13:58:51.122Z,47.23
2019-01-09T14:01:23.117Z,39.77
2019-01-09T14:03:53.955Z,45.17
2019-01-09T14:06:24.756Z,47.70
2019-01-09T14:08:55.377Z,49.40
2019-01-09T14:11:25.980Z,51.80
2019-01-09T14:13:56.543Z,48.53
2019-01-09T14:16:27.186Z,46.90
2019-01-09T14:18:57.834Z,49.57
2019-01-09T14:21:28.450Z,51.47
2019-01-09T14:23:58.852Z,48.07
2019-01-09T14:26:29.342Z,52.10
2019-01-09T14:29:00.013Z,49.67
2019-01-09T14:31:31.768Z,48.13
2019-01-09T14:34:02.239Z,47.33
2019-01-09T14:36:33.633Z,51.47
2019-01-09T14:39:06.524Z,49.57
2019-01-09T14:41:37.971Z,47.93
2019-01-09T14:44:10.067Z,49.80
2019-01-09T14:46:40.635Z,44.90
2019-01-09T14:49:11.269Z,56.50
2019-01-09T14:51:43.172Z,52.93
2019-01-09T14:54:13.977Z,54.83
2019-01-09T14:56:44.375Z,54.17
2019-01-09T14:59:14.936Z,48.63
2019-01-09T15:01:45.600Z,55.17
2019-01-09T15:04:17.663Z,48.60
2019-01-09T15:06:48.391Z,48.30
2019-01-09T15:09:25.190Z,51.17
2019-01-09T15:11:55.752Z,62.17
2019-01-09T15:14:29.551Z,52.23
2019-01-09T15:17:00.166Z,58.87
2019-01-09T15:19:31.101Z,59.57
2019-01-09T15:22:01.664Z,62.13
2019-01-09T15:24:34.330Z,59.93
2019-01-09T15:27:04.964Z,61.27
2019-01-09T15:29:35.609Z,65.63
2019-01-09T15:32:06.274Z,61.77
2019-01-09T15:34:36.868Z,60.83
2019-01-09T15:37:07.492Z,64.80
2019-01-09T15:39:38.147Z,63.20
2019-01-09T15:42:09.502Z,60.30
2019-01-09T15:44:40.063Z,58.53
2019-01-09T15:47:10.688Z,60.03
2019-01-09T15:49:41.410Z,56.37
2019-01-09T15:52:12.249Z,62.67
2019-01-09T15:54:42.913Z,62.80
2019-01-09T15:57:13.382Z,62.70
2019-01-09T15:59:43.971Z,65.27
2019-01-09T16:02:14.582Z,66.33
2019-01-09T16:04:45.224Z,64.87
2019-01-09T16:07:15.833Z,57.53
2019-01-09T16:09:48.137Z,62.60
2019-01-09T16:12:18.852Z,60.37
2019-01-09T16:14:49.467Z,63.20
2019-01-09T16:17:22.083Z,60.17
2019-01-09T16:19:52.802Z,61.40
2019-01-09T16:22:25.476Z,56.43
2019-01-09T16:24:55.728Z,56.20
2019-01-09T16:27:26.200Z,56.83
2019-01-09T16:29:59.823Z,47.67
2019-01-09T16:32:30.378Z,54.70
2019-01-09T16:35:01.008Z,52.00
2019-01-09T16:37:31.510Z,54.10
2019-01-09T16:40:02.133Z,56.53
2019-01-09T16:42:33.549Z,65.40
2019-01-09T16:45:04.750Z,60.47
2019-01-09T16:47:36.126Z,64.20
2019-01-09T16:50:20.019Z,62.60
2019-01-09T16:52:50.657Z,69.17
2019-01-09T16:55:21.401Z,78.13
2019-01-09T16:57:52.051Z,69.93
2019-01-09T17:00:31.923Z,68.17
2019-01-09T17:03:05.671Z,75.53
2019-01-09T17:05:37.439Z,70.57
2019-01-09T17:08:08.506Z,70.60
2019-01-09T17:10:39.253Z,71.23
2019-01-09T17:13:14.846Z,70.53
2019-01-09T17:15:47.018Z,87.23
2019-01-09T17:18:18.330Z,83.13
2019-01-09T17:20:52.162Z,81.23
2019-01-09T17:23:23.177Z,80.50
2019-01-09T17:25:56.723Z,92.90
2019-01-09T17:28:27.403Z,88.83
2019-01-09T17:30:58.518Z,86.90
2019-01-09T17:33:29.950Z,78.53
2019-01-09T17:36:01.196Z,78.67
2019-01-09T17:38:34.708Z,78.93
2019-01-09T17:41:10.408Z,81.93
2019-01-09T17:43:42.612Z,73.77
2019-01-09T17:46:14.525Z,75.87
2019-01-09T17:48:45.873Z,68.80
2019-01-09T17:51:16.889Z,74.97
2019-01-09T17:53:47.383Z,74.53
2019-01-09T17:56:19.059Z,69.53
2019-01-09T17:58:49.585Z,83.07
2019-01-09T18:01:20.149Z,71.70
2019-01-09T18:03:51.299Z,80.80
2019-01-09T18:06:21.986Z,67.53
2019-01-09T18:08:52.745Z,73.07
2019-01-09T18:11:23.237Z,72.70
2019-01-09T18:13:53.748Z,68.30
2019-01-09T18:16:25.323Z,63.17
2019-01-09T18:18:56.596Z,65.17
2019-01-09T18:21:27.175Z,65.17
2019-01-09T18:23:58.134Z,66.60
2019-01-09T18:26:28.868Z,66.77
2019-01-09T18:29:00.494Z,88.20
2019-01-09T18:31:47.620Z,82.53
2019-01-09T18:34:19.838Z,91.50
2019-01-09T18:37:22.138Z,92.80
2019-01-09T18:40:02.410Z,97.93
2019-01-09T18:43:09.453Z,85.47
2019-01-09T18:46:03.145Z,82.63
2019-01-09T18:48:55.649Z,89.53
2019-01-09T18:51:53.497Z,92.17
2019-01-09T18:54:24.180Z,94.13
2019-01-09T18:56:58.123Z,80.13
2019-01-09T18:59:28.651Z,77.47
2019-01-09T19:01:59.267Z,80.37
2019-01-09T19:04:29.901Z,79.60
2019-01-09T19:07:01.386Z,92.30
2019-01-09T19:09:32.378Z,84.03
2019-01-09T19:12:02.994Z,89.33
2019-01-09T19:14:33.589Z,84.77
2019-01-09T19:17:05.926Z,94.50
2019-01-09T19:19:36.626Z,88.07
2019-01-09T19:22:07.689Z,89.53
2019-01-09T19:24:38.909Z,107.20
2019-01-09T19:27:09.757Z,92.30
2019-01-09T19:29:42.323Z,94.53
2019-01-09T19:32:12.973Z,99.83
2019-01-09T19:34:49.548Z,93.87
2019-01-09T19:37:20.176Z,97.77
2019-01-09T19:39:50.833Z,88.73
2019-01-09T19:42:22.535Z,93.30
2019-01-09T19:44:53.203Z,90.00
2019-01-09T19:47:24.569Z,91.13
2019-01-09T19:49:55.522Z,86.47
2019-01-09T19:52:26.422Z,80.17
2019-01-09T19:54:57.045Z,88.73
2019-01-09T19:57:28.208Z,91.57
2019-01-09T19:59:59.171Z,89.40
2019-01-09T20:02:29.830Z,91.03
2019-01-09T20:05:00.565Z,81.07
2019-01-09T20:07:31.584Z,87.63
2019-01-09T20:10:02.600Z,88.67
2019-01-09T20:12:33.382Z,80.50
2019-01-09T20:15:07.251Z,88.00
2019-01-09T20:17:37.894Z,91.43
2019-01-09T20:20:13.540Z,89.23
2019-01-09T20:22:45.741Z,85.80
2019-01-09T20:25:17.019Z,91.53
2019-01-09T20:27:47.725Z,87.37
2019-01-09T20:30:29.370Z,90.87
2019-01-09T20:33:00.290Z,87.67
2019-01-09T20:35:33.507Z,96.13
2019-01-09T20:38:06.189Z,97.80
2019-01-09T20:40:39.708Z,92.80
2019-01-09T20:43:10.390Z,89.43
2019-01-09T20:45:41.032Z,94.37
2019-01-09T20:48:14.274Z,87.83
2019-01-09T20:50:48.376Z,93.27
2019-01-09T20:53:19.085Z,96.10
2019-01-09T20:55:49.751Z,92.23
2019-01-09T20:58:20.611Z,87.90
2019-01-09T21:00:51.938Z,94.90
2019-01-09T21:03:27.042Z,85.20
2019-01-09T21:05:58.002Z,92.50
2019-01-09T21:08:28.657Z,88.47
2019-01-09T21:10:59.252Z,91.30
2019-01-09T21:13:31.035Z,91.83
2019-01-09T21:16:02.354Z,86.47
2019-01-09T21:18:33.044Z,86.73
2019-01-09T21:21:07.523Z,83.63
2019-01-09T21:23:40.799Z,75.13
2019-01-09T21:26:14.305Z,65.90
2019-01-09T21:28:47.625Z,62.90
2019-01-09T21:31:22.061Z,57.70
2019-01-09T21:33:52.667Z,60.23
2019-01-09T21:36:25.429Z,54.27
2019-01-09T21:38:55.882Z,64.53
2019-01-09T21:41:29.136Z,54.83
2019-01-09T21:43:59.659Z,58.90
2019-01-09T21:46:33.387Z,51.63
2019-01-09T21:49:04.492Z,50.77
2019-01-09T21:51:35.068Z,57.37
2019-01-09T21:54:06.133Z,57.10
2019-01-09T21:56:38.178Z,56.37
2019-01-09T21:59:08.716Z,56.23
2019-01-09T22:01:42.041Z,60.87
2019-01-09T22:04:12.615Z,51.63
2019-01-09T22:06:43.550Z,54.63
2019-01-09T22:09:16.435Z,53.23
2019-01-09T22:11:47.510Z,54.90
2019-01-09T22:14:18.080Z,51.57
2019-01-09T22:16:48.620Z,53.60
2019-01-09T22:19:19.374Z,54.97
2019-01-09T22:21:50.122Z,56.77
2019-01-09T22:24:23.420Z,55.87
2019-01-09T22:26:55.250Z,57.10
2019-01-09T22:29:27.066Z,52.63
2019-01-09T22:32:01.147Z,55.40
2019-01-09T22:34:33.312Z,62.30
2019-01-09T22:37:03.959Z,78.73
2019-01-09T22:39:34.430Z,74.53
2019-01-09T22:42:11.736Z,76.03
2019-01-09T22:44:39.063Z,76.33
2019-01-09T22:47:09.765Z,76.40
2019-01-09T22:49:42.430Z,81.37
2019-01-09T22:52:15.235Z,78.97
2019-01-09T22:54:46.112Z,80.03
2019-01-09T22:57:19.156Z,80.73
2019-01-09T22:59:49.161Z,71.80
2019-01-09T23:02:21.809Z,72.17
2019-01-09T23:04:52.684Z,74.13
2019-01-09T23:07:23.315Z,71.37
2019-01-09T23:09:54.275Z,66.67
2019-01-09T23:12:25.023Z,74.00
2019-01-09T23:14:56.023Z,74.87
2019-01-09T23:17:29.900Z,59.33
2019-01-09T23:20:00.994Z,65.27
2019-01-09T23:22:32.914Z,67.50
2019-01-09T23:25:04.449Z,72.90
2019-01-09T23:27:35.767Z,63.50
2019-01-09T23:30:12.539Z,70.20
2019-01-09T23:32:43.319Z,68.50
2019-01-09T23:35:16.527Z,66.90
2019-01-09T23:37:47.549Z,65.80
2019-01-09T23:40:18.559Z,67.67
2019-01-09T23:42:53.856Z,65.87
2019-01-09T23:45:24.383Z,63.67
2019-01-09T23:47:55.088Z,65.70
2019-01-09T23:50:26.394Z,68.43
2019-01-09T23:52:57.560Z,68.43
2019-01-09T23:55:31.209Z,68.10
2019-01-09T23:58:02.096Z,68.60
